Time;durP1;ratioP1;P1;durP2;ratioP2;P2;SDS_P1;SDS_P2;PMS_P1;PMS_P2;Temp;Humidity;BMP_temperature;BMP_pressure;BME280_temperature;BME280_humidity;BME280_pressure;Samples;Min_cycle;Max_cycle;Signal;HPM_P1;HPM_P2
2020/12/05 00:01:51;;;;;;;81.68;40.67;;;;;;;0.06;98.84;96917.38;5110993;28;20459;-74
2020/12/05 00:04:17;;;;;;;72.75;38.60;;;;;;;0.11;98.70;96918.25;5110827;28;20035;-73
2020/12/05 00:06:42;;;;;;;73.63;35.90;;;;;;;0.12;98.28;96911.00;5110832;28;20751;-73
2020/12/05 00:09:08;;;;;;;83.35;38.08;;;;;;;0.25;97.37;96905.19;5111213;28;20024;-74
2020/12/05 00:11:33;;;;;;;74.07;39.17;;;;;;;0.26;97.77;96928.31;5111414;28;20016;-74
2020/12/05 00:13:59;;;;;;;;;;;;;;;0.24;97.88;96915.13;5110318;28;20030;-74
2020/12/05 00:16:24;;;;;;;72.78;38.03;;;;;;;0.14;98.28;96898.91;5109639;28;20298;-74
2020/12/05 00:18:54;;;;;;;;;;;;;;;0.26;98.38;96917.56;5111567;28;20019;-73
2020/12/05 00:21:20;;;;;;;68.07;35.28;;;;;;;0.23;98.50;96923.44;5110863;28;20002;-74
2020/12/05 00:23:45;;;;;;;72.13;37.13;;;;;;;0.20;98.74;96910.53;5111316;28;20392;-74
2020/12/05 00:26:18;;;;;;;62.85;35.47;;;;;;;0.28;98.36;96910.06;5109462;28;20028;-75
2020/12/05 00:28:44;;;;;;;71.90;34.25;;;;;;;0.32;98.14;96927.28;5110929;28;20042;-73
2020/12/05 00:31:14;;;;;;;76.50;36.15;;;;;;;0.37;98.37;96940.81;5109347;28;20473;-74
2020/12/05 00:33:40;;;;;;;66.88;33.42;;;;;;;0.35;98.12;96937.53;5110767;28;20497;-74
2020/12/05 00:36:06;;;;;;;62.72;35.03;;;;;;;0.34;97.87;96944.00;5110247;28;20023;-74
2020/12/05 00:38:32;;;;;;;65.05;34.78;;;;;;;0.43;98.18;96939.78;5110557;28;20157;-74
2020/12/05 00:40:57;;;;;;;;;;;;;;;0.44;98.47;96950.25;5111582;28;20034;-74
2020/12/05 00:43:23;;;;;;;48.60;25.30;;;;;;;0.36;98.04;96933.78;5110571;28;19923;-73
2020/12/05 00:45:48;;;;;;;;;;;;;;;0.30;98.34;96934.81;5111118;28;20110;-74
2020/12/05 00:48:14;;;;;;;56.10;27.70;;;;;;;0.28;97.87;96920.81;5110944;28;20391;-73
2020/12/05 00:50:39;;;;;;;60.35;30.58;;;;;;;0.30;97.63;96908.75;5109014;28;20106;-73
2020/12/05 00:53:05;;;;;;;;;;;;;;;0.24;98.30;96903.56;5100156;28;20043;-73
2020/12/05 00:55:30;;;;;;;72.60;36.20;;;;;;;-0.09;98.97;96889.28;5088177;28;20270;-73
2020/12/05 00:57:55;;;;;;;;;;;;;;;-0.02;99.74;96897.16;5092417;28;20103;-73
2020/12/05 01:00:21;;;;;;;81.15;39.53;;;;;;;-0.02;99.82;96889.91;5092693;28;19916;-74
2020/12/05 01:02:46;;;;;;;;;;;;;;;-0.08;99.76;96896.28;5109783;28;20060;-73
2020/12/05 01:05:12;;;;;;;80.07;39.38;;;;;;;-0.11;99.98;96907.56;5093563;28;19947;-73
2020/12/05 01:07:37;;;;;;;88.38;41.00;;;;;;;-0.18;100.00;96920.38;5093862;28;20046;-74
2020/12/05 01:10:04;;;;;;;72.20;41.60;;;;;;;-0.15;100.00;96917.16;5094078;28;20023;-74
2020/12/05 01:12:30;;;;;;;67.20;38.42;;;;;;;-0.17;99.72;96913.13;5093934;28;20024;-74
2020/12/05 01:15:01;;;;;;;75.78;41.53;;;;;;;-0.04;100.00;96924.28;5093690;28;20073;-74
2020/12/05 01:17:26;;;;;;;82.57;41.20;;;;;;;0.01;99.95;96920.81;5092361;28;20032;-74
2020/12/05 01:19:52;;;;;;;67.45;36.50;;;;;;;-0.02;99.89;96905.22;5093580;28;20020;-74
2020/12/05 01:22:21;;;;;;;89.47;43.03;;;;;;;-0.07;99.89;96916.72;5093946;28;20097;-74
2020/12/05 01:24:46;;;;;;;77.75;40.33;;;;;;;-0.08;100.00;96916.97;5092252;28;20586;-74
2020/12/05 01:27:12;;;;;;;82.68;38.05;;;;;;;-0.07;100.00;96914.06;5093142;28;20028;-76
2020/12/05 01:29:37;;;;;;;;;;;;;;;0.02;100.00;96927.81;5095992;28;20031;-74
2020/12/05 01:32:02;;;;;;;78.20;39.60;;;;;;;-0.05;100.00;96921.84;5093467;28;20006;-74
2020/12/05 01:34:28;;;;;;;;;;;;;;;-0.10;100.00;96928.00;5094078;28;20032;-74
2020/12/05 01:36:53;;;;;;;72.90;37.25;;;;;;;-0.12;100.00;96924.72;5093943;28;20291;-75
2020/12/05 01:39:18;;;;;;;;;;;;;;;0.04;100.00;96935.63;5094640;28;20028;-74
2020/12/05 01:41:44;;;;;;;73.63;38.65;;;;;;;0.10;100.00;96923.84;5095230;28;19916;-74
2020/12/05 01:44:09;;;;;;;75.05;36.33;;;;;;;0.07;100.00;96916.31;5095245;28;20075;-75
2020/12/05 01:46:39;;;;;;;67.72;36.78;;;;;;;0.20;100.00;96905.13;5097163;28;20737;-79
2020/12/05 01:49:06;;;;;;;73.25;41.95;;;;;;;0.24;99.36;96919.69;5111820;28;20035;-75
2020/12/05 01:51:32;;;;;;;80.50;40.83;;;;;;;0.34;99.46;96925.19;5117394;28;20030;-77
2020/12/05 01:53:58;;;;;;;77.70;36.60;;;;;;;0.33;99.58;96923.53;5115516;28;20468;-77
2020/12/05 01:56:26;;;;;;;52.10;33.42;;;;;;;0.22;99.90;96927.22;5115766;28;20612;-76
2020/12/05 01:58:51;;;;;;;65.22;34.33;;;;;;;0.21;100.00;96918.34;5113774;28;20020;-74
2020/12/05 02:01:21;;;;;;;64.57;31.65;;;;;;;0.30;100.00;96919.50;5112693;28;20026;-74
2020/12/05 02:03:49;;;;;;;65.93;33.13;;;;;;;0.34;100.00;96895.59;5112790;27;20038;-74
2020/12/05 02:06:39;;;;;;;54.85;29.50;;;;;;;0.45;100.00;96910.72;5113246;28;20043;-73
2020/12/05 02:09:37;;;;;;;58.55;28.45;;;;;;;0.35;100.00;96916.84;5112908;28;20032;-74
2020/12/05 02:12:37;;;;;;;57.67;27.73;;;;;;;0.36;100.00;96904.22;5106347;28;20039;-74
2020/12/05 02:15:12;;;;;;;57.10;28.77;;;;;;;0.45;100.00;96902.66;5113102;28;20039;-74
2020/12/05 02:17:51;;;;;;;58.00;28.90;;;;;;;0.36;100.00;96896.13;5112943;28;20027;-75
2020/12/05 02:20:18;;;;;;;57.65;28.88;;;;;;;0.35;100.00;96894.50;5111626;28;20131;-75
2020/12/05 02:22:46;;;;;;;67.75;34.03;;;;;;;0.30;99.72;96911.44;5112489;28;20106;-75
2020/12/05 02:25:13;;;;;;;65.10;36.65;;;;;;;0.27;100.00;96911.13;5112875;28;20052;-74
2020/12/05 02:27:42;;;;;;;70.03;35.05;;;;;;;0.40;100.00;96906.16;5112552;28;20110;-74
2020/12/05 02:30:08;;;;;;;65.30;32.70;;;;;;;0.34;99.93;96906.34;5111336;28;20404;-74
2020/12/05 02:32:34;;;;;;;54.80;30.48;;;;;;;0.35;99.83;96910.66;5112725;28;20023;-74
2020/12/05 02:34:59;;;;;;;59.45;27.98;;;;;;;0.51;99.88;96915.09;5112497;28;20496;-74
2020/12/05 02:37:27;;;;;;;68.55;32.55;;;;;;;0.52;99.54;96914.03;5111104;28;20023;-73
2020/12/05 02:39:55;;;;;;;64.40;29.17;;;;;;;0.47;99.31;96904.03;5111424;28;20024;-74
2020/12/05 02:42:20;;;;;;;54.63;27.08;;;;;;;0.32;99.14;96897.72;5111980;28;20051;-74
2020/12/05 02:44:53;;;;;;;51.05;26.17;;;;;;;0.34;99.46;96915.25;5112787;28;20527;-74
2020/12/05 02:47:20;;;;;;;51.65;26.60;;;;;;;0.28;99.75;96908.16;5111528;28;20076;-74
2020/12/05 02:49:46;;;;;;;45.55;24.90;;;;;;;0.14;99.42;96908.84;5112934;28;20112;-73
2020/12/05 02:52:12;;;;;;;51.08;25.77;;;;;;;0.31;99.65;96909.56;5114193;28;20028;-73
2020/12/05 02:54:38;;;;;;;47.25;25.17;;;;;;;0.34;99.32;96912.56;5114046;28;20473;-73
2020/12/05 02:57:04;;;;;;;51.28;27.08;;;;;;;0.37;99.33;96900.47;5113637;28;20032;-73
2020/12/05 02:59:30;;;;;;;;;;;;;;;0.42;99.56;96905.88;5111762;28;20028;-74
2020/12/05 03:01:56;;;;;;;52.05;24.83;;;;;;;0.30;99.74;96910.63;5113044;28;20459;-74
2020/12/05 03:04:22;;;;;;;54.70;24.48;;;;;;;0.36;99.88;96925.72;5113186;28;20031;-74
2020/12/05 03:06:47;;;;;;;50.05;27.00;;;;;;;0.26;100.00;96912.19;5112753;28;20051;-73
2020/12/05 03:09:13;;;;;;;45.05;25.40;;;;;;;0.38;99.87;96920.88;5113500;28;20032;-74
2020/12/05 03:11:39;;;;;;;61.58;29.23;;;;;;;0.39;99.78;96917.13;5113040;28;20487;-74
2020/12/05 03:14:05;;;;;;;59.60;26.35;;;;;;;0.45;99.47;96913.44;5113493;28;20073;-74
2020/12/05 03:16:31;;;;;;;54.80;25.92;;;;;;;0.52;99.44;96919.41;5113213;28;20503;-74
2020/12/05 03:18:56;;;;;;;57.10;24.50;;;;;;;0.48;99.68;96915.59;5113204;28;20068;-75
2020/12/05 03:21:22;;;;;;;46.40;23.77;;;;;;;0.48;100.00;96912.91;5113523;27;20020;-74
2020/12/05 03:23:47;;;;;;;51.75;26.20;;;;;;;0.52;99.74;96900.56;5117787;28;20399;-74
2020/12/05 03:26:13;;;;;;;44.92;23.95;;;;;;;0.67;99.39;96908.75;5118587;28;20804;-74
2020/12/05 03:28:39;;;;;;;47.55;26.88;;;;;;;0.63;99.72;96909.53;5118457;28;20097;-75
2020/12/05 03:31:06;;;;;;;47.17;25.63;;;;;;;0.43;100.00;96916.38;5118432;28;20023;-74
2020/12/05 03:33:33;;;;;;;40.85;22.40;;;;;;;0.40;100.00;96905.31;5114267;28;20023;-74
2020/12/05 03:35:59;;;;;;;46.83;22.00;;;;;;;0.51;100.00;96917.78;5112274;28;20019;-75
2020/12/05 03:38:25;;;;;;;45.67;23.38;;;;;;;0.52;100.00;96928.28;5112072;28;20509;-75
2020/12/05 03:40:50;;;;;;;;;;;;;;;0.43;100.00;96924.47;5112847;28;20024;-74
2020/12/05 03:43:15;;;;;;;42.78;20.35;;;;;;;0.28;100.00;96910.84;5111741;28;19919;-74
2020/12/05 03:45:41;;;;;;;47.30;24.48;;;;;;;0.30;100.00;96918.69;5111428;27;20028;-75
2020/12/05 03:48:06;;;;;;;45.40;21.65;;;;;;;0.35;100.00;96916.84;5111467;28;20027;-75
2020/12/05 03:50:32;;;;;;;47.08;25.02;;;;;;;0.31;100.00;96909.56;5110207;28;20491;-74
2020/12/05 03:52:57;;;;;;;47.78;24.77;;;;;;;0.34;100.00;96898.28;5111327;28;20384;-75
2020/12/05 03:55:23;;;;;;;48.83;24.58;;;;;;;0.26;100.00;96907.63;5111396;28;20015;-75
2020/12/05 03:57:48;;;;;;;47.22;22.15;;;;;;;0.33;100.00;96921.66;5110092;28;20026;-77
2020/12/05 04:00:13;;;;;;;49.75;24.50;;;;;;;0.46;100.00;96928.50;5110835;28;20028;-74
2020/12/05 04:02:39;;;;;;;47.22;23.58;;;;;;;0.33;100.00;96929.75;5111037;28;20079;-74
2020/12/05 04:05:04;;;;;;;53.90;22.67;;;;;;;0.55;100.00;96926.97;5109653;28;20085;-75
2020/12/05 04:07:30;;;;;;;41.78;23.02;;;;;;;0.50;100.00;96918.88;5111019;28;20097;-74
2020/12/05 04:09:55;;;;;;;42.40;19.67;;;;;;;0.56;100.00;96930.47;5110912;28;20107;-73
2020/12/05 04:12:21;;;;;;;52.00;24.05;;;;;;;0.44;100.00;96917.16;5111795;28;20019;-75
2020/12/05 04:14:49;;;;;;;49.40;25.33;;;;;;;0.59;100.00;96925.38;5111168;28;20047;-75
2020/12/05 04:17:14;;;;;;;47.38;22.25;;;;;;;0.60;100.00;96924.28;5111147;28;20024;-75
2020/12/05 04:19:40;;;;;;;44.20;23.42;;;;;;;0.60;100.00;96915.41;5111525;28;20124;-75
2020/12/05 04:22:05;;;;;;;46.97;22.48;;;;;;;0.64;100.00;96909.28;5111285;28;20064;-75
2020/12/05 04:24:31;;;;;;;46.45;21.75;;;;;;;0.64;100.00;96913.84;5111146;28;20019;-75
2020/12/05 04:26:56;;;;;;;41.72;21.73;;;;;;;0.50;100.00;96919.66;5095443;28;20392;-74
2020/12/05 04:29:21;;;;;;;38.50;21.30;;;;;;;0.59;100.00;96932.63;5107777;28;20381;-74
2020/12/05 04:31:47;;;;;;;39.20;20.40;;;;;;;0.45;100.00;96922.31;5106761;28;20075;-74
2020/12/05 04:34:12;;;;;;;40.72;21.40;;;;;;;0.41;100.00;96923.88;5094255;28;20028;-74
2020/12/05 04:36:38;;;;;;;38.97;18.98;;;;;;;0.43;100.00;96929.00;5093888;28;20465;-73
2020/12/05 04:39:03;;;;;;;;;;;;;;;0.61;100.00;96942.06;5094815;28;20028;-75
2020/12/05 04:41:28;;;;;;;36.22;19.38;;;;;;;0.61;100.00;96947.44;5093402;28;19916;-75
2020/12/05 04:43:54;;;;;;;34.58;19.92;;;;;;;0.60;100.00;96955.75;5097273;28;20757;-75
2020/12/05 04:46:20;;;;;;;;;;;;;;;0.57;100.00;96957.09;5114927;27;20023;-74
2020/12/05 04:48:47;;;;;;;46.35;20.20;;;;;;;0.54;100.00;96958.41;5115056;28;19965;-74
2020/12/05 04:51:17;;;;;;;59.72;23.83;;;;;;;0.54;100.00;96962.97;5113498;28;20030;-74
2020/12/05 04:53:46;;;;;;;42.95;21.45;;;;;;;0.51;100.00;96958.13;5113262;28;20066;-75
2020/12/05 04:56:14;;;;;;;40.65;20.25;;;;;;;0.67;100.00;96973.31;5114737;28;20015;-74
2020/12/05 04:58:46;;;;;;;38.50;22.10;;;;;;;0.56;100.00;96973.50;5115402;28;20068;-77
2020/12/05 05:01:17;;;;;;;32.00;19.85;;;;;;;0.48;100.00;96975.59;5114555;28;20077;-74
2020/12/05 05:03:42;;;;;;;39.42;19.80;;;;;;;0.50;100.00;96967.28;5113128;28;20035;-74
2020/12/05 05:06:17;;;;;;;40.28;20.25;;;;;;;0.51;100.00;96982.31;5112894;28;20024;-75
2020/12/05 05:08:44;;;;;;;37.22;21.27;;;;;;;0.38;100.00;96978.19;5112567;28;20027;-75
2020/12/05 05:11:12;;;;;;;49.22;21.95;;;;;;;0.46;100.00;96971.53;5113514;28;20051;-74
2020/12/05 05:13:54;;;;;;;40.63;21.80;;;;;;;0.46;100.00;96971.53;5112731;28;20081;-74
2020/12/05 05:16:21;;;;;;;41.88;19.33;;;;;;;0.60;100.00;96983.47;5114383;28;20895;-77
2020/12/05 05:18:47;;;;;;;40.35;21.50;;;;;;;0.47;100.00;97000.06;5107823;28;20055;-74
2020/12/05 05:21:39;;;;;;;37.42;20.17;;;;;;;0.66;100.00;96992.44;5097503;28;20421;-74
2020/12/05 05:24:19;;;;;;;31.40;18.80;;;;;;;0.59;100.00;97003.41;5113656;28;20036;-74
2020/12/05 05:26:57;;;;;;;33.42;17.52;;;;;;;0.60;100.00;96996.13;5113834;28;20027;-73
2020/12/05 05:29:29;;;;;;;37.70;17.52;;;;;;;0.75;99.98;97005.13;5114565;28;20032;-74
2020/12/05 05:32:20;;;;;;;37.00;17.52;;;;;;;0.73;100.00;96996.50;5114895;28;20053;-74
2020/12/05 05:34:46;;;;;;;36.63;18.08;;;;;;;0.66;100.00;96998.59;5115184;28;20063;-73
2020/12/05 05:37:17;;;;;;;35.72;18.60;;;;;;;0.78;100.00;96996.56;5113890;28;20062;-73
2020/12/05 05:39:44;;;;;;;33.05;18.23;;;;;;;0.81;100.00;96992.56;5096793;28;20055;-78
2020/12/05 05:42:10;;;;;;;42.65;19.98;;;;;;;0.64;100.00;97000.75;5117456;28;20050;-77
2020/12/05 05:44:36;;;;;;;28.95;17.42;;;;;;;0.61;100.00;97006.63;5116416;28;20035;-78
2020/12/05 05:47:01;;;;;;;;;;;;;;;0.59;100.00;97008.78;5117687;28;20093;-82
2020/12/05 05:49:32;;;;;;;40.95;18.55;;;;;;;0.54;100.00;96996.09;5116166;28;19938;-83
2020/12/05 05:52:02;;;;;;;33.00;18.85;;;;;;;0.58;100.00;96991.00;5117331;28;20514;-73
2020/12/05 05:54:30;;;;;;;40.47;20.30;;;;;;;0.65;100.00;97023.91;5115175;28;20035;-74
2020/12/05 05:56:57;;;;;;;35.45;18.92;;;;;;;0.64;100.00;97029.53;5113070;28;20019;-74
2020/12/05 05:59:25;;;;;;;32.42;17.77;;;;;;;0.67;100.00;97016.38;5113286;28;20042;-74
2020/12/05 06:01:52;;;;;;;38.58;20.15;;;;;;;0.73;100.00;97009.97;5111821;28;20519;-74
2020/12/05 06:04:28;;;;;;;46.47;23.42;;;;;;;0.65;100.00;96997.00;5115133;28;20035;-74
2020/12/05 06:06:54;;;;;;;38.35;18.40;;;;;;;0.77;100.00;97015.66;5111687;28;20027;-74
2020/12/05 06:09:29;;;;;;;45.05;20.77;;;;;;;0.87;100.00;97016.56;5114682;28;20499;-74
2020/12/05 06:11:58;;;;;;;34.67;18.70;;;;;;;0.82;100.00;97008.41;5117152;28;20050;-74
2020/12/05 06:14:24;;;;;;;46.95;21.63;;;;;;;0.84;100.00;97021.63;5116383;28;20745;-74
2020/12/05 06:16:57;;;;;;;38.38;20.63;;;;;;;0.85;100.00;97023.25;5116311;28;20032;-74
2020/12/05 06:19:24;;;;;;;37.55;19.17;;;;;;;0.73;100.00;97026.09;5111989;28;20500;-74
2020/12/05 06:21:52;;;;;;;37.72;20.45;;;;;;;0.80;100.00;97024.03;5112459;27;20400;-74
2020/12/05 06:24:29;;;;;;;29.70;18.55;;;;;;;0.65;100.00;97007.75;5112348;27;20047;-75
2020/12/05 06:27:00;;;;;;;44.17;23.45;;;;;;;0.64;100.00;97016.88;5112358;28;20035;-75
2020/12/05 06:29:26;;;;;;;51.83;21.75;;;;;;;0.72;100.00;97024.47;5112321;27;20023;-74
2020/12/05 06:31:51;;;;;;;44.10;23.20;;;;;;;0.69;100.00;97030.38;5112232;28;20040;-74
2020/12/05 06:34:33;;;;;;;42.20;22.92;;;;;;;0.76;100.00;97019.41;5112027;28;20081;-74
2020/12/05 06:36:59;;;;;;;43.33;22.65;;;;;;;0.68;100.00;97012.63;5111751;28;20116;-74
2020/12/05 06:39:25;;;;;;;46.60;24.02;;;;;;;0.69;100.00;97000.00;5111974;28;20134;-74
2020/12/05 06:41:51;;;;;;;;;;;;;;;0.87;100.00;97013.88;5112674;28;20042;-73
2020/12/05 06:44:25;;;;;;;43.55;21.15;;;;;;;0.87;100.00;97016.56;5110314;28;19915;-74
2020/12/05 06:47:11;;;;;;;37.42;21.70;;;;;;;0.95;100.00;97016.06;5111528;28;20492;-74
2020/12/05 06:49:39;;;;;;;33.00;17.50;;;;;;;0.85;100.00;97029.44;5110059;28;20480;-74
2020/12/05 06:52:26;;;;;;;45.90;20.38;;;;;;;0.89;100.00;97022.47;5110567;28;20502;-74
2020/12/05 06:54:52;;;;;;;36.67;17.73;;;;;;;0.79;100.00;97014.31;5111647;28;20042;-74
2020/12/05 06:57:18;;;;;;;29.50;17.45;;;;;;;0.75;100.00;97029.34;5111398;28;20027;-74
2020/12/05 06:59:44;;;;;;;34.90;18.17;;;;;;;0.81;100.00;97036.44;5112332;28;20099;-74
2020/12/05 07:02:27;;;;;;;;;;;;;;;0.79;100.00;97045.78;5111850;28;20043;-75
2020/12/05 07:05:19;;;;;;;28.65;16.70;;;;;;;0.82;100.00;97038.03;5111467;28;19916;-74
2020/12/05 07:07:46;;;;;;;33.63;17.48;;;;;;;0.78;100.00;97039.63;5086405;28;20568;-74
2020/12/05 07:10:11;;;;;;;38.58;17.88;;;;;;;0.75;100.00;97042.81;5111543;28;20472;-74
2020/12/05 07:12:38;;;;;;;32.88;16.85;;;;;;;0.79;100.00;97048.47;5106452;28;20024;-75
2020/12/05 07:15:19;;;;;;;34.17;17.02;;;;;;;1.10;100.00;97054.97;5103867;28;20495;-75
2020/12/05 07:17:44;;;;;;;28.77;15.57;;;;;;;0.92;100.00;97046.19;5103383;28;20476;-75
2020/12/05 07:20:10;;;;;;;28.48;16.27;;;;;;;0.87;100.00;97043.47;5103810;28;20026;-75
2020/12/05 07:22:35;;;;;;;29.02;16.02;;;;;;;0.87;100.00;97056.94;5102628;28;20115;-75
2020/12/05 07:25:00;;;;;;;36.35;17.67;;;;;;;0.88;100.00;97055.03;5103466;28;20369;-75
2020/12/05 07:27:26;;;;;;;29.40;16.05;;;;;;;0.88;100.00;97047.75;5103596;28;20035;-76
2020/12/05 07:29:54;;;;;;;;;;;;;;;0.84;100.00;97046.69;5103965;28;20494;-76
2020/12/05 07:32:20;;;;;;;32.35;18.15;;;;;;;0.90;100.00;97042.16;5103672;28;20014;-74
2020/12/05 07:34:46;;;;;;;31.88;16.65;;;;;;;0.94;100.00;97054.81;5103382;28;20016;-75
2020/12/05 07:37:34;;;;;;;29.83;16.63;;;;;;;0.90;100.00;97048.34;5103069;28;20039;-75
2020/12/05 07:40:00;;;;;;;34.78;18.50;;;;;;;1.10;100.00;97065.72;5097130;28;20098;-74
2020/12/05 07:42:42;;;;;;;31.05;16.98;;;;;;;1.36;99.85;97067.53;5100737;28;20488;-76
2020/12/05 07:45:10;;;;;;;32.65;17.70;;;;;;;1.26;99.30;97067.44;5102554;28;20035;-74
2020/12/05 07:47:35;;;;;;;28.52;19.33;;;;;;;1.19;99.15;97077.66;5100898;28;20039;-74
2020/12/05 07:50:02;;;;;;;23.92;15.43;;;;;;;1.23;99.34;97067.97;5101336;28;20035;-74
2020/12/05 07:52:27;;;;;;;26.35;16.52;;;;;;;1.30;99.20;97082.03;5098797;28;20030;-75
2020/12/05 07:54:58;;;;;;;31.40;15.50;;;;;;;1.12;99.14;97085.94;5101042;28;20028;-75
2020/12/05 07:57:28;;;;;;;52.78;26.50;;;;;;;1.16;99.62;97078.16;5100351;28;20027;-74
2020/12/05 08:00:10;;;;;;;28.30;17.65;;;;;;;1.16;99.96;97078.16;5100524;28;20028;-74
2020/12/05 08:02:46;;;;;;;23.40;14.32;;;;;;;1.41;99.19;97098.00;5100471;28;20043;-74
2020/12/05 08:05:57;;;;;;;29.25;16.42;;;;;;;1.40;98.78;97106.34;5100882;28;20031;-74
2020/12/05 08:08:27;;;;;;;23.88;13.57;;;;;;;1.43;98.63;97103.16;5081476;28;20039;-74
2020/12/05 08:11:00;;;;;;;27.70;15.05;;;;;;;1.42;98.89;97088.03;5102986;28;20129;-73
2020/12/05 08:13:27;;;;;;;27.70;16.08;;;;;;;1.41;98.98;97083.75;5108473;28;20032;-74
2020/12/05 08:16:06;;;;;;;26.23;15.30;;;;;;;1.35;99.40;97077.50;5098571;28;20024;-74
2020/12/05 08:18:34;;;;;;;37.28;16.80;;;;;;;1.35;99.17;97090.97;5098391;28;20036;-74
2020/12/05 08:21:01;;;;;;;25.75;14.70;;;;;;;1.44;99.19;97097.47;5107944;28;20038;-74
2020/12/05 08:23:35;;;;;;;29.10;17.25;;;;;;;1.32;100.00;97104.13;5108984;28;20043;-73
2020/12/05 08:26:03;;;;;;;33.30;17.10;;;;;;;1.30;99.64;97095.50;5095891;28;20066;-74
2020/12/05 08:28:37;;;;;;;41.42;21.23;;;;;;;1.25;99.70;97098.16;5110151;28;20108;-74
2020/12/05 08:31:10;;;;;;;28.45;17.88;;;;;;;1.28;100.00;97106.53;5109717;28;20400;-73
2020/12/05 08:33:49;;;;;;;31.10;17.13;;;;;;;1.26;100.00;97111.34;5110454;28;20030;-74
2020/12/05 08:36:22;;;;;;;26.42;17.83;;;;;;;1.23;100.00;97135.28;5110038;28;20100;-73
2020/12/05 08:38:48;;;;;;;25.63;16.55;;;;;;;1.28;100.00;97140.75;5107940;28;20492;-74
2020/12/05 08:41:14;;;;;;;38.92;20.98;;;;;;;1.30;100.00;97125.13;5089077;28;20032;-73
2020/12/05 08:43:40;;;;;;;30.05;18.30;;;;;;;1.44;99.61;97131.72;5089839;28;20044;-73
2020/12/05 08:46:17;;;;;;;28.25;17.92;;;;;;;1.60;98.94;97128.03;5108690;28;20028;-74
2020/12/05 08:48:42;;;;;;;26.52;16.83;;;;;;;1.79;98.03;97123.88;5109546;28;20122;-72
2020/12/05 08:51:08;;;;;;;33.70;20.55;;;;;;;2.08;96.39;97133.22;5095931;28;20204;-72
2020/12/05 08:53:33;;;;;;;;;;;;;;;2.95;93.11;97140.56;5108826;28;20031;-74
2020/12/05 08:56:01;;;;;;;34.55;19.38;;;;;;;3.34;89.12;97143.59;5109377;28;20265;-73
2020/12/05 08:58:41;;;;;;;32.17;18.52;;;;;;;3.49;88.12;97146.31;5110132;28;20090;-75
2020/12/05 09:01:07;;;;;;;34.78;18.30;;;;;;;3.39;88.90;97148.19;5111131;28;20023;-77
2020/12/05 09:03:36;;;;;;;33.05;17.58;;;;;;;3.04;88.86;97141.66;5109290;28;20033;-75
2020/12/05 09:06:02;;;;;;;25.58;16.75;;;;;;;3.39;88.62;97154.41;5110445;28;20106;-75
2020/12/05 09:08:27;;;;;;;36.10;20.45;;;;;;;3.30;88.84;97147.91;5108698;28;20610;-76
2020/12/05 09:10:53;;;;;;;28.90;18.75;;;;;;;3.11;89.29;97146.81;5109831;28;20031;-75
2020/12/05 09:13:18;;;;;;;25.20;16.58;;;;;;;3.35;89.05;97168.75;5112947;28;20077;-75
2020/12/05 09:15:59;;;;;;;39.65;19.33;;;;;;;3.17;91.01;97172.75;5109721;28;20032;-76
2020/12/05 09:18:25;;;;;;;37.35;19.27;;;;;;;3.25;88.56;97161.44;5109515;28;20032;-75
2020/12/05 09:20:50;;;;;;;34.33;19.23;;;;;;;2.94;90.52;97160.56;5113777;28;20028;-75
2020/12/05 09:23:27;;;;;;;35.33;20.17;;;;;;;2.99;90.60;97138.97;5113698;28;20501;-76
2020/12/05 09:26:01;;;;;;;36.60;21.70;;;;;;;2.99;91.37;97157.06;5113833;27;20115;-76
2020/12/05 09:28:26;;;;;;;33.83;20.00;;;;;;;2.82;91.79;97151.88;5113905;28;20031;-75
2020/12/05 09:30:52;;;;;;;44.42;23.17;;;;;;;2.39;93.73;97136.06;5103120;28;20035;-76
2020/12/05 09:33:17;;;;;;;;;;;;;;;2.75;93.30;97153.22;5100043;27;20156;-76
2020/12/05 09:35:44;;;;;;;36.42;22.88;;;;;;;2.81;92.31;97166.47;5099819;28;20492;-74
2020/12/05 09:38:10;;;;;;;37.55;23.88;;;;;;;2.91;92.22;97158.41;5095310;28;20031;-73
2020/12/05 09:40:35;;;;;;;54.90;30.02;;;;;;;2.72;93.12;97151.84;5098172;28;20539;-72
2020/12/05 09:43:01;;;;;;;;;;;;;;;3.03;93.39;97168.94;5099522;28;20119;-75
2020/12/05 09:45:28;;;;;;;38.67;21.55;;;;;;;3.05;94.10;97166.78;5101911;28;19912;-73
2020/12/05 09:47:53;;;;;;;49.30;26.92;;;;;;;3.60;89.30;97168.75;5099569;28;20503;-75
2020/12/05 09:50:19;;;;;;;37.35;21.95;;;;;;;3.43;91.14;97189.81;5096758;28;20028;-72
2020/12/05 09:52:45;;;;;;;49.35;24.60;;;;;;;3.44;89.53;97172.53;5102115;28;20032;-74
2020/12/05 09:55:11;;;;;;;44.53;25.38;;;;;;;3.23;90.83;97188.72;5107351;28;20046;-73
2020/12/05 09:57:37;;;;;;;43.85;24.40;;;;;;;3.14;91.81;97168.69;5109209;28;20034;-73
2020/12/05 10:00:08;;;;;;;42.70;24.70;;;;;;;3.79;89.17;97172.53;5108965;28;20031;-71
2020/12/05 10:02:35;;;;;;;37.45;24.35;;;;;;;3.79;88.71;97177.94;5101622;28;20050;-73
2020/12/05 10:05:01;;;;;;;36.15;22.92;;;;;;;4.01;88.90;97146.00;5111377;28;20028;-72
2020/12/05 10:07:26;;;;;;;30.38;20.00;;;;;;;4.33;87.31;97154.59;5105736;28;20032;-72
2020/12/05 10:09:52;;;;;;;35.58;20.25;;;;;;;4.20;87.12;97157.84;5100099;28;20024;-72
2020/12/05 10:12:17;;;;;;;;;;;;;;;4.04;87.37;97164.38;5106506;28;20054;-73
2020/12/05 10:14:43;;;;;;;31.08;21.15;;;;;;;3.81;88.37;97162.25;5102089;28;19922;-73
2020/12/05 10:17:08;;;;;;;35.35;21.17;;;;;;;3.69;89.02;97156.31;5099585;28;20023;-73
2020/12/05 10:19:33;;;;;;;27.98;19.67;;;;;;;3.72;88.86;97177.41;5102773;28;20039;-76
2020/12/05 10:21:59;;;;;;;35.80;21.27;;;;;;;3.59;90.12;97162.53;5102572;28;20047;-74
2020/12/05 10:24:24;;;;;;;35.97;21.45;;;;;;;3.87;88.95;97169.28;5101645;28;20028;-74
2020/12/05 10:26:53;;;;;;;;;;;;;;;4.21;88.07;97159.50;5100393;28;20111;-73
2020/12/05 10:29:23;;;;;;;38.60;20.95;;;;;;;4.02;87.79;97166.56;5099434;28;19985;-73
2020/12/05 10:31:51;;;;;;;29.80;20.20;;;;;;;3.84;87.62;97164.41;5101013;28;20423;-73
2020/12/05 10:34:17;;;;;;;25.70;18.33;;;;;;;4.21;86.84;97169.50;5099537;28;20076;-72
2020/12/05 10:36:43;;;;;;;30.00;18.75;;;;;;;4.05;87.10;97170.59;5097519;28;20453;-71
2020/12/05 10:39:10;;;;;;;29.63;19.17;;;;;;;3.71;89.50;97168.47;5097336;28;20085;-72
2020/12/05 10:41:36;;;;;;;25.40;17.95;;;;;;;3.64;90.21;97175.22;5102098;28;20114;-72
2020/12/05 10:44:06;;;;;;;28.42;19.83;;;;;;;3.57;91.18;97174.72;5101000;28;20134;-72
2020/12/05 10:46:32;;;;;;;34.17;18.33;;;;;;;3.34;90.97;97173.34;5101797;28;20032;-73
2020/12/05 10:48:57;;;;;;;33.30;19.90;;;;;;;3.37;91.08;97175.50;5098382;28;20038;-72
2020/12/05 10:51:23;;;;;;;;;;;;;;;3.22;92.67;97179.00;5105679;28;20058;-74
2020/12/05 10:53:48;;;;;;;30.08;18.67;;;;;;;3.14;92.85;97174.09;5103436;28;19970;-73
2020/12/05 10:56:14;;;;;;;30.50;18.38;;;;;;;3.35;92.99;97182.25;5105759;28;20020;-72
2020/12/05 10:58:39;;;;;;;;;;;;;;;3.53;92.71;97169.03;5103971;28;20508;-72
2020/12/05 11:01:04;;;;;;;30.25;18.80;;;;;;;3.42;91.71;97166.56;5103460;28;19922;-72
2020/12/05 11:03:30;;;;;;;;;;;;;;;3.53;91.61;97174.44;5104936;28;20038;-73
2020/12/05 11:05:56;;;;;;;38.75;19.65;;;;;;;3.23;91.56;97169.78;5110560;28;20330;-73
2020/12/05 11:08:21;;;;;;;35.03;20.02;;;;;;;3.28;90.11;97170.88;5109942;28;20027;-72
2020/12/05 11:10:47;;;;;;;39.75;24.23;;;;;;;3.07;92.66;97162.72;5109689;28;20035;-72
2020/12/05 11:13:12;;;;;;;35.25;20.95;;;;;;;3.20;92.55;97169.50;5110863;28;20657;-73
2020/12/05 11:15:38;;;;;;;;;;;;;;;3.27;92.08;97177.34;5110605;28;20039;-72
2020/12/05 11:18:04;;;;;;;37.53;19.45;;;;;;;3.33;92.50;97168.19;5109906;28;19919;-72
2020/12/05 11:20:29;;;;;;;36.17;20.90;;;;;;;3.24;92.20;97168.72;5109788;28;20035;-72
2020/12/05 11:22:55;;;;;;;;;;;;;;;2.92;93.08;97165.41;5110161;28;20115;-72
2020/12/05 11:25:20;;;;;;;36.72;19.90;;;;;;;3.18;93.15;97161.69;5109573;28;19915;-72
2020/12/05 11:27:45;;;;;;;;;;;;;;;3.44;91.98;97154.44;5110333;28;20027;-75
2020/12/05 11:30:11;;;;;;;34.42;18.77;;;;;;;3.27;92.13;97143.06;5109578;28;20425;-75
2020/12/05 11:32:37;;;;;;;;;;;;;;;3.61;91.50;97154.13;5104908;28;20027;-74
2020/12/05 11:35:06;;;;;;;35.72;21.77;;;;;;;3.53;92.03;97157.41;5101432;28;19920;-74